Airfield :
LOGIN :

Register | Disclaimer

   EN    FR    IT 

 










Legend :    VFR   Marginal VFR   IFR   Intensive IFR   Very Intensive IFR
Visi :
Ceiling :
>= 8 km
>= 3000ft
5 to 8 km
1000 to 3000 ft
1500m to 5 km
500 to 1000 ft
800 to 1500m
200 to 500 ft
< 800m
< 200 ft
Symbols :   Thunderstorms  Fog  Heavy snow  Heavy precipitations  Wind > 20 kt
SIGMETs :     Misc.  Thunderstorms  Icing  Turbulence  Mountain Waves  Volcanic Ashes






- Airport Elevation : 33 ft
- IATA code : MHZ


EGUN - RAF Mildenhall

CURRENT METAR :
  • 270827Z 35002KT 5000 -RASN FEW014 BKN020 00/00 A2944 RMK AO2A WND DATA ESTMD ALSTG ESTMD SLPNO RVRNO $

EXPIRED METARs :
  • 270755Z 03001KT 5000 -RASN OVC017 01/00 A2943 RMK AO2A SLP967 WND DATA ESTMD ALSTG ESTMD RVRNO $
  • 270655Z 10001KT 5000 -RASN FEW003 BKN019 OVC080 01/00 A2944 RMK AO2A SLP970 WND DATA ESTMD ALSTG ESTMD RVRNO $
  • 270621Z 14002KT 9999 -RASN FEW005 BKN015 BKN021 01/00 A2945 RMK AO2A SLP973 WND DATA ESTMD ALSTG ESTMD RVRNO $
  • 270555Z 16003KT 9999 -RA SCT010 BKN016 BKN022 OVC028 02/00 A2946 RMK AO2A SLP977 WND DATA ESTMD ALSTG ESTMD 60000 RVRNO .

TAF TAF EGUN
Valid from the 27 at 04:00 until the 28 at 10:00 UTC


270400Z 2704/2810 17009KT 9999 SCT050 QNH2952INS
BECMG 2705/2706 18010G15KT 8000 -RASN OVC010 620109 QNH2945INS
TEMPO 2708/2710 5000 -SN OVC005 620099
BECMG 2710/2711 27012KT 8000 -RASN OVC007 620079 QNH2978INS
BECMG 2712/2713 30015G25KT 9999 NSW SCT025 QNH2950INS
BECMG 2721/2722 28012KT 9999 FEW020 QNH2980INS TX06/2715Z TN01/2710Z



MET'MAP, your aeronautical weather chart ! - Copyright ORBIFLY December 2007 - Disclaimer

ORBIFLY MET'MAP TEAM :

Programming & Development : Alexandra Zaïnal
Concept & original design : Baudouin d'Aumeries
Assistance for programming : Marc-Olivier Méhu
Technical & hardware support : Manuel Goepfert

Contact : metmap@orbifly.com




SOURCES & CREDITS :

   NOAA